5 day graph

You are here

Hive Data

Page: 1 of 16645  Records: 998690

Row Date Time Hive Temp Hive Humidity Outside Temp Outside Humidity Bottom Board Temp Outside Wall Temp Electronics Temp Light Levels inHG Fan Heat Cover Notes
Clear Sorted By: Outside Wall Temp ascending, Hive Humidity ascending, Row descending
View 381884 Mar 1 2015 12:14:52am 71.78 33 31.1 79 38.3 -196.6 57.2 262 29.5 0 0 0 NA
View 381818 Feb 28 2015 11:07:40pm 73.4 33 31.28 77 40.1 -196.6 59 257 29.5 0 0 0 NA
View 381817 Feb 28 2015 11:06:39pm 73.58 33 31.1 77 40.1 -196.6 59 257 29.49 0 0 0 NA
View 381816 Feb 28 2015 11:05:37pm 73.76 33 31.1 77 40.1 -196.6 59 257 29.5 0 0 0 NA
View 381766 Feb 28 2015 10:14:44pm 74.48 33 33.08 73 41.45 -196.6 60.8 254 29.49 0 0 0 NA
View 381731 Feb 28 2015 9:39:08pm 75.38 33 33.26 74 43.25 -196.6 62.6 251 29.49 0 0 0 NA
View 381730 Feb 28 2015 9:38:06pm 75.38 33 33.44 73 43.25 -196.6 62.6 252 29.49 0 0 0 NA
View 381983 Mar 1 2015 1:55:43am 69.98 34 31.1 79 36.95 -196.6 55.4 265 29.51 0 0 0 NA
View 381927 Mar 1 2015 12:58:40am 71.24 34 31.28 78 37.85 -196.6 57.2 263 29.51 0 0 0 NA
View 381886 Mar 1 2015 12:16:53am 71.6 34 31.1 78 38.3 -196.6 57.2 261 29.5 0 0 0 NA
View 381885 Mar 1 2015 12:15:51am 71.6 34 31.1 78 38.3 -196.6 57.2 261 29.5 0 0 0 NA
View 381877 Mar 1 2015 12:07:43am 71.96 34 30.92 79 38.75 -196.6 57.2 261 29.5 0 0 0 NA
View 381861 Feb 28 2015 11:51:25pm 72.5 34 30.56 78 38.75 -196.6 57.2 261 29.5 0 0 0 NA
View 381842 Feb 28 2015 11:32:05pm 72.86 34 30.74 78 39.2 -196.6 59 259 29.5 0 0 0 NA
View 381819 Feb 28 2015 11:08:41pm 73.4 34 31.28 77 40.1 -196.6 59 258 29.5 0 0 0 NA
View 381815 Feb 28 2015 11:04:36pm 73.76 34 31.28 77 40.1 -196.6 59 257 29.5 0 0 0 NA
View 381765 Feb 28 2015 10:13:44pm 74.48 34 32.9 73 41.45 -196.6 60.8 254 29.49 0 0 0 NA
View 381760 Feb 28 2015 10:08:38pm 74.66 34 32.9 73 41.9 -196.6 60.8 254 29.49 0 0 0 NA
View 381757 Feb 28 2015 10:05:36pm 74.66 34 33.08 73 41.9 -196.6 60.8 253 29.49 0 0 0 NA
View 381740 Feb 28 2015 9:48:16pm 74.84 34 33.26 73 42.8 -196.6 62.6 252 29.49 0 0 0 NA
View 381738 Feb 28 2015 9:46:15pm 75.02 34 33.26 73 42.8 -196.6 62.6 252 29.49 0 0 0 NA
View 381735 Feb 28 2015 9:43:11pm 75.02 34 33.26 73 42.8 -196.6 62.6 252 29.49 0 0 0 NA
View 381734 Feb 28 2015 9:42:10pm 75.2 34 33.26 73 43.25 -196.6 62.6 252 29.49 0 0 0 NA
View 381733 Feb 28 2015 9:41:09pm 75.2 34 33.26 74 43.25 -196.6 62.6 251 29.49 0 0 0 NA
View 381732 Feb 28 2015 9:40:09pm 75.2 34 33.26 74 43.25 -196.6 62.6 251 29.49 0 0 0 NA
View 381729 Feb 28 2015 9:37:05pm 75.56 34 33.44 73 43.25 -196.6 62.6 251 29.49 0 0 0 NA
View 381985 Mar 1 2015 1:57:45am 69.8 35 30.92 79 36.95 -196.6 55.4 265 29.51 0 0 0 NA
View 381982 Mar 1 2015 1:54:42am 70.16 35 31.1 79 36.95 -196.6 55.4 265 29.51 0 0 0 NA
View 381981 Mar 1 2015 1:53:40am 70.16 35 31.1 79 36.95 -196.6 55.4 265 29.51 0 0 0 NA
View 381980 Mar 1 2015 1:52:39am 70.34 35 31.1 79 36.95 -196.6 55.4 264 29.51 0 0 0 NA
View 381963 Mar 1 2015 1:35:21am 70.52 35 30.74 79 37.4 -196.6 55.4 264 29.52 0 0 0 NA
View 381940 Mar 1 2015 1:11:55am 71.24 35 31.28 77 37.4 -196.6 55.4 264 29.51 0 0 0 NA
View 381928 Mar 1 2015 12:59:41am 71.06 35 31.28 78 37.85 -196.6 57.2 263 29.51 0 0 0 NA
View 381925 Mar 1 2015 12:56:37am 71.42 35 31.28 78 37.85 -196.6 57.2 263 29.5 0 0 0 NA
View 381904 Mar 1 2015 12:35:14am 71.6 35 31.28 77 38.3 -196.6 57.2 262 29.5 0 0 0 NA
View 381903 Mar 1 2015 12:34:12am 71.6 35 31.28 77 38.3 -196.6 57.2 262 29.51 0 0 0 NA
View 381891 Mar 1 2015 12:21:59am 71.42 35 31.1 78 38.3 -196.6 57.2 262 29.5 0 0 0 NA
View 381890 Mar 1 2015 12:20:58am 71.6 35 31.1 78 38.3 -196.6 57.2 262 29.51 0 0 0 NA
View 381889 Mar 1 2015 12:19:56am 71.6 35 31.1 78 38.3 -196.6 57.2 262 29.5 0 0 0 NA
View 381887 Mar 1 2015 12:17:54am 71.6 35 31.1 77 38.3 -196.6 57.2 261 29.51 0 0 0 NA
View 381883 Mar 1 2015 12:13:50am 71.78 35 31.1 79 38.3 -196.6 57.2 261 29.5 0 0 0 NA
View 381882 Mar 1 2015 12:12:49am 71.78 35 31.1 79 38.3 -196.6 57.2 262 29.5 0 0 0 NA
View 381878 Mar 1 2015 12:08:44am 71.96 35 30.92 79 38.3 -196.6 57.2 261 29.5 0 0 0 NA
View 381872 Mar 1 2015 12:02:36am 72.14 35 30.74 78 38.75 -196.6 57.2 261 29.5 0 0 0 NA
View 381869 Feb 28 2015 11:59:34pm 72.32 35 30.74 78 38.75 -196.6 57.2 261 29.5 0 0 0 NA
View 381868 Feb 28 2015 11:58:33pm 72.32 35 30.74 77 38.75 -196.6 57.2 261 29.5 0 0 0 NA
View 381863 Feb 28 2015 11:53:28pm 72.32 35 30.56 77 38.75 -196.6 57.2 261 29.5 0 0 0 NA
View 381862 Feb 28 2015 11:52:26pm 72.5 35 30.56 77 38.75 -196.6 57.2 260 29.5 0 0 0 NA
View 381860 Feb 28 2015 11:50:24pm 72.68 35 30.56 78 38.75 -196.6 57.2 261 29.5 0 0 0 NA
View 381855 Feb 28 2015 11:45:19pm 72.86 35 30.56 78 39.2 -196.6 57.2 260 29.5 0 0 0 NA
View 381839 Feb 28 2015 11:29:03pm 73.04 35 30.74 78 39.65 -196.6 59 259 29.5 0 0 0 NA
View 381837 Feb 28 2015 11:27:00pm 73.04 35 30.74 77 39.65 -196.6 59 259 29.5 0 0 0 NA
View 381836 Feb 28 2015 11:25:59pm 73.04 35 30.92 77 39.65 -196.6 59 259 29.5 0 0 0 NA
View 381832 Feb 28 2015 11:21:55pm 73.04 35 30.92 77 39.65 -196.6 59 259 29.5 0 0 0 NA
View 381831 Feb 28 2015 11:20:54pm 73.04 35 30.92 77 39.65 -196.6 59 259 29.5 0 0 0 NA
View 381830 Feb 28 2015 11:19:52pm 73.22 35 30.92 77 39.65 -196.6 59 259 29.5 0 0 0 NA
View 381824 Feb 28 2015 11:13:46pm 73.04 35 31.1 77 39.65 -196.6 59 259 29.5 0 0 0 NA
View 381814 Feb 28 2015 11:03:36pm 73.76 35 31.1 77 40.1 -196.6 59 257 29.5 0 0 0 NA
View 381796 Feb 28 2015 10:45:16pm 74.12 35 32 76 40.55 -196.6 60.8 256 29.49 0 0 0 NA
View 381795 Feb 28 2015 10:44:16pm 74.12 35 32.18 76 40.55 -196.6 60.8 256 29.5 0 0 0 NA